createdAt,value
2019-02-06T00:01:23.558Z,99.90
2019-02-06T00:11:19.889Z,99.90
2019-02-06T00:16:15.537Z,99.90
2019-02-06T00:21:11.576Z,99.90
2019-02-06T00:26:07.401Z,99.90
2019-02-06T00:31:03.232Z,99.90
2019-02-06T00:35:58.960Z,99.90
2019-02-06T00:40:54.690Z,99.90
2019-02-06T00:45:52.144Z,99.90
2019-02-06T00:50:47.917Z,99.90
2019-02-06T00:55:43.636Z,99.90
2019-02-06T01:00:39.594Z,99.90
2019-02-06T01:05:38.418Z,99.90
2019-02-06T01:10:33.083Z,99.90
2019-02-06T01:15:28.873Z,99.90
2019-02-06T01:20:24.778Z,99.90
2019-02-06T01:25:20.390Z,99.90
2019-02-06T01:30:19.643Z,99.90
2019-02-06T01:35:15.499Z,99.90
2019-02-06T01:40:12.942Z,99.90
2019-02-06T01:45:10.674Z,99.90
2019-02-06T01:50:10.056Z,99.90
2019-02-06T01:55:06.403Z,99.90
2019-02-06T02:00:02.081Z,99.90
2019-02-06T02:04:58.873Z,99.90
2019-02-06T02:15:10.772Z,99.90
2019-02-06T02:20:09.095Z,99.90
2019-02-06T02:25:05.421Z,99.90
2019-02-06T02:30:01.182Z,99.90
2019-02-06T02:34:57.886Z,99.90
2019-02-06T02:39:53.958Z,99.90
2019-02-06T02:44:49.795Z,99.90
2019-02-06T02:49:45.575Z,99.90
2019-02-06T02:54:41.284Z,99.90
2019-02-06T02:59:37.093Z,99.90
2019-02-06T03:04:51.726Z,99.90
2019-02-06T03:09:47.821Z,99.90
2019-02-06T03:14:43.521Z,99.90
2019-02-06T03:19:39.166Z,99.90
2019-02-06T03:24:34.875Z,99.90
2019-02-06T03:29:30.609Z,99.90
2019-02-06T03:34:26.233Z,99.90
2019-02-06T03:39:23.085Z,99.90
2019-02-06T03:44:18.971Z,99.90
2019-02-06T03:49:14.670Z,99.90
2019-02-06T03:54:08.596Z,99.90
2019-02-06T03:59:04.412Z,99.90
2019-02-06T04:04:03.065Z,99.90
2019-02-06T04:08:58.769Z,99.90
2019-02-06T04:13:54.355Z,99.90
2019-02-06T04:18:50.349Z,99.90
2019-02-06T04:23:46.046Z,99.90
2019-02-06T04:28:42.235Z,99.90
2019-02-06T04:33:38.954Z,99.90
2019-02-06T04:38:36.078Z,99.90
2019-02-06T04:43:31.785Z,99.90
2019-02-06T04:48:28.419Z,99.90
2019-02-06T04:53:24.073Z,99.90
2019-02-06T04:58:19.773Z,99.90
2019-02-06T05:03:16.384Z,99.90
2019-02-06T05:08:12.002Z,99.90
2019-02-06T05:13:07.737Z,99.90
2019-02-06T05:18:03.544Z,99.90
2019-02-06T05:22:59.241Z,99.90
2019-02-06T05:27:55.085Z,99.90
2019-02-06T05:32:50.775Z,99.90
2019-02-06T05:37:46.632Z,99.90
2019-02-06T05:42:42.319Z,99.90
2019-02-06T05:47:38.060Z,99.90
2019-02-06T05:52:33.789Z,99.90
2019-02-06T05:57:29.476Z,99.90
2019-02-06T06:02:25.154Z,99.90
2019-02-06T06:07:20.825Z,99.90
2019-02-06T06:12:18.721Z,99.90
2019-02-06T06:17:14.359Z,99.90
2019-02-06T06:22:10.298Z,99.90
2019-02-06T06:27:06.101Z,99.90
2019-02-06T06:32:01.737Z,99.90
2019-02-06T06:36:57.523Z,99.90
2019-02-06T06:41:53.168Z,99.90
2019-02-06T06:46:48.929Z,99.90
2019-02-06T06:51:44.858Z,99.90
2019-02-06T06:56:40.870Z,99.90
2019-02-06T07:01:36.534Z,99.90
2019-02-06T07:06:33.721Z,99.90
2019-02-06T07:11:29.409Z,99.90
2019-02-06T07:16:25.136Z,99.90
2019-02-06T07:21:20.761Z,99.90
2019-02-06T07:26:16.455Z,99.90
2019-02-06T07:31:13.497Z,99.90
2019-02-06T07:36:09.316Z,99.90
2019-02-06T07:41:04.912Z,99.90
2019-02-06T07:46:00.609Z,99.90
2019-02-06T07:50:56.305Z,99.90
2019-02-06T07:55:52.028Z,99.90
2019-02-06T08:00:47.693Z,99.90
2019-02-06T08:05:43.940Z,99.90
2019-02-06T08:10:39.607Z,99.90
2019-02-06T08:15:35.367Z,99.90
2019-02-06T08:20:31.132Z,99.90
2019-02-06T08:25:26.946Z,99.90
2019-02-06T08:30:27.657Z,99.90
2019-02-06T08:35:23.567Z,99.90
2019-02-06T08:40:20.176Z,99.90
2019-02-06T08:45:16.053Z,99.90
2019-02-06T08:50:12.662Z,99.90
2019-02-06T08:55:10.829Z,99.90
2019-02-06T09:00:07.960Z,99.90
2019-02-06T09:05:03.854Z,99.90
2019-02-06T09:09:59.504Z,99.90
2019-02-06T09:14:55.561Z,99.90
2019-02-06T09:19:51.295Z,99.90
2019-02-06T09:24:47.012Z,99.90
2019-02-06T09:29:42.644Z,99.60
2019-02-06T09:34:38.337Z,99.90
2019-02-06T09:39:33.968Z,99.90
2019-02-06T09:44:29.608Z,97.80
2019-02-06T09:49:26.837Z,98.60
2019-02-06T09:54:22.654Z,96.50
2019-02-06T09:59:18.390Z,93.50
2019-02-06T10:04:14.074Z,92.80
2019-02-06T10:09:10.038Z,87.10
2019-02-06T10:14:05.892Z,86.80
2019-02-06T10:19:01.640Z,88.10
2019-02-06T10:23:57.711Z,88.10
2019-02-06T10:28:54.490Z,86.50
2019-02-06T10:33:50.218Z,84.00
2019-02-06T10:38:46.404Z,81.30
2019-02-06T10:43:42.245Z,78.40
2019-02-06T10:48:38.052Z,75.40
2019-02-06T10:53:33.767Z,74.20
2019-02-06T10:58:29.865Z,73.60
2019-02-06T11:03:23.718Z,71.10
2019-02-06T11:08:19.525Z,68.00
2019-02-06T11:13:15.304Z,68.20
2019-02-06T11:18:10.981Z,67.00
2019-02-06T11:23:09.957Z,65.00
2019-02-06T11:28:08.665Z,61.80
2019-02-06T11:33:10.310Z,59.50
2019-02-06T11:38:07.212Z,58.20
2019-02-06T11:43:03.025Z,56.90
2019-02-06T11:48:00.270Z,55.80
2019-02-06T11:52:56.301Z,54.90
2019-02-06T11:57:52.190Z,51.40
2019-02-06T12:02:47.818Z,50.10
2019-02-06T12:07:43.509Z,49.60
2019-02-06T12:12:39.253Z,47.00
2019-02-06T12:17:35.044Z,45.10
2019-02-06T12:22:31.178Z,44.80
2019-02-06T12:27:26.992Z,43.60
2019-02-06T12:32:23.331Z,43.10
2019-02-06T12:37:19.161Z,43.30
2019-02-06T12:42:15.062Z,42.10
2019-02-06T12:47:10.800Z,41.40
2019-02-06T12:52:06.628Z,39.80
2019-02-06T12:57:02.233Z,40.00
2019-02-06T13:01:57.849Z,39.50
2019-02-06T13:06:54.779Z,38.30
2019-02-06T13:11:50.932Z,38.40
2019-02-06T13:16:46.719Z,38.90
2019-02-06T13:21:42.580Z,38.60
2019-02-06T13:26:40.189Z,39.20
2019-02-06T13:31:35.877Z,40.30
2019-02-06T13:36:31.544Z,40.50
2019-02-06T13:41:27.232Z,40.80
2019-02-06T13:46:22.993Z,41.10
2019-02-06T13:51:19.690Z,40.90
2019-02-06T13:56:15.741Z,40.70
2019-02-06T14:01:11.600Z,40.80
2019-02-06T14:06:07.558Z,41.00
2019-02-06T14:11:04.500Z,40.90
2019-02-06T14:16:00.584Z,41.20
2019-02-06T14:20:56.721Z,40.80
2019-02-06T14:26:21.797Z,41.50
2019-02-06T14:32:06.827Z,41.20
2019-02-06T14:37:55.629Z,41.20
2019-02-06T14:43:32.002Z,42.30
2019-02-06T14:49:07.251Z,43.00
2019-02-06T14:54:18.703Z,46.80
2019-02-06T14:59:31.290Z,50.20
2019-02-06T15:04:55.890Z,52.00
2019-02-06T15:10:38.276Z,53.40
2019-02-06T15:16:20.753Z,54.80
2019-02-06T15:21:57.680Z,56.40
2019-02-06T15:27:13.203Z,57.10
2019-02-06T15:32:07.298Z,59.10
2019-02-06T15:37:38.353Z,60.80
2019-02-06T15:43:03.795Z,62.30
2019-02-06T15:48:35.323Z,63.90
2019-02-06T15:54:04.352Z,65.50
2019-02-06T15:59:28.280Z,67.30
2019-02-06T16:05:25.937Z,69.00
2019-02-06T16:11:00.064Z,71.50
2019-02-06T16:16:36.149Z,75.60
2019-02-06T16:21:53.088Z,78.10
2019-02-06T16:27:11.220Z,80.80
2019-02-06T16:33:03.217Z,82.50
2019-02-06T16:38:38.565Z,84.40
2019-02-06T16:44:14.310Z,87.70
2019-02-06T16:49:29.558Z,89.90
2019-02-06T16:55:07.735Z,90.40
2019-02-06T17:00:43.197Z,91.10
2019-02-06T17:06:04.849Z,91.10
2019-02-06T17:11:34.950Z,91.40
2019-02-06T17:17:06.652Z,92.10
2019-02-06T17:22:42.006Z,92.40
2019-02-06T17:27:56.085Z,92.70
2019-02-06T17:33:33.364Z,93.10
2019-02-06T17:39:06.977Z,93.50
2019-02-06T17:44:42.620Z,93.60
2019-02-06T17:50:10.747Z,94.20
2019-02-06T17:55:19.430Z,94.40
2019-02-06T18:00:24.891Z,94.70
2019-02-06T18:05:20.896Z,95.10
2019-02-06T18:10:18.025Z,95.30
2019-02-06T18:15:14.137Z,96.10
2019-02-06T18:20:12.324Z,96.40
2019-02-06T18:25:26.985Z,97.10
2019-02-06T18:30:22.991Z,97.20
2019-02-06T18:35:19.475Z,97.30
2019-02-06T18:40:18.530Z,98.00
2019-02-06T18:45:16.159Z,98.70
2019-02-06T18:50:20.884Z,98.50
2019-02-06T18:55:16.868Z,99.70
2019-02-06T19:00:19.993Z,99.90
2019-02-06T19:05:16.604Z,99.90
2019-02-06T19:10:17.075Z,99.90
2019-02-06T19:15:18.146Z,99.90
2019-02-06T19:20:15.634Z,99.90
2019-02-06T19:25:11.849Z,99.90
2019-02-06T19:30:17.905Z,99.90
2019-02-06T19:35:13.871Z,99.90
2019-02-06T19:40:10.459Z,99.90
2019-02-06T19:45:07.240Z,99.90
2019-02-06T19:50:03.010Z,99.90
2019-02-06T19:55:00.504Z,99.90
2019-02-06T19:59:57.606Z,99.90
2019-02-06T20:04:54.376Z,99.90
2019-02-06T20:09:50.891Z,99.90
2019-02-06T20:14:47.478Z,99.90
2019-02-06T20:19:43.461Z,99.90
2019-02-06T20:24:42.534Z,99.90
2019-02-06T20:29:38.433Z,99.90
2019-02-06T20:34:41.166Z,99.90
2019-02-06T20:39:37.217Z,99.90
2019-02-06T20:44:34.485Z,99.90
2019-02-06T20:49:30.427Z,99.90
2019-02-06T20:54:26.772Z,99.90
2019-02-06T20:59:22.701Z,99.90
2019-02-06T21:04:20.057Z,99.90
2019-02-06T21:09:19.018Z,99.90
2019-02-06T21:14:17.283Z,99.90
2019-02-06T21:19:14.572Z,99.90
2019-02-06T21:24:10.661Z,99.90
2019-02-06T21:29:06.757Z,99.90
2019-02-06T21:34:02.789Z,99.90
2019-02-06T21:38:59.137Z,99.90
2019-02-06T21:43:55.602Z,99.90
2019-02-06T21:48:51.480Z,99.90
2019-02-06T21:53:47.272Z,99.90
2019-02-06T21:58:44.906Z,99.90
2019-02-06T22:03:40.762Z,99.90
2019-02-06T22:08:36.563Z,99.90
2019-02-06T22:13:34.339Z,99.90
2019-02-06T22:18:30.097Z,99.90
2019-02-06T22:23:25.825Z,99.90
2019-02-06T22:28:21.609Z,99.90
2019-02-06T22:33:17.719Z,99.90
2019-02-06T22:38:13.615Z,99.90
2019-02-06T22:43:09.383Z,99.90
2019-02-06T22:48:05.518Z,99.90
2019-02-06T22:53:01.342Z,99.90
2019-02-06T22:57:57.112Z,99.90
2019-02-06T23:02:53.224Z,99.90
2019-02-06T23:07:48.969Z,99.90
2019-02-06T23:12:44.705Z,99.90
2019-02-06T23:17:40.716Z,99.90
2019-02-06T23:22:37.765Z,99.90
2019-02-06T23:27:33.591Z,99.90
2019-02-06T23:32:32.014Z,99.90
2019-02-06T23:37:28.108Z,99.90
2019-02-06T23:42:24.016Z,99.90
2019-02-06T23:47:19.744Z,99.90
2019-02-06T23:52:15.798Z,99.90
2019-02-06T23:57:14.876Z,99.90
